createdAt,value
2022-09-10T00:01:40.841Z,85.92
2022-09-10T00:04:11.802Z,86.17
2022-09-10T00:06:39.874Z,87.02
2022-09-10T00:09:08.365Z,87.23
2022-09-10T00:11:38.869Z,86.93
2022-09-10T00:14:08.285Z,86.88
2022-09-10T00:16:37.545Z,86.72
2022-09-10T00:19:06.866Z,86.29
2022-09-10T00:21:35.820Z,86.36
2022-09-10T00:24:05.136Z,86.61
2022-09-10T00:26:38.371Z,86.75
2022-09-10T00:29:08.126Z,86.77
2022-09-10T00:31:38.172Z,86.40
2022-09-10T00:34:06.871Z,85.72
2022-09-10T00:36:37.549Z,85.43
2022-09-10T00:39:09.531Z,84.98
2022-09-10T00:41:37.996Z,84.39
2022-09-10T00:44:07.434Z,83.84
2022-09-10T00:46:41.863Z,83.85
2022-09-10T00:49:15.239Z,84.26
2022-09-10T00:51:43.454Z,84.15
2022-09-10T00:54:11.669Z,83.71
2022-09-10T00:56:39.808Z,83.34
2022-09-10T00:59:09.618Z,83.30
2022-09-10T01:01:39.861Z,82.98
2022-09-10T01:04:10.794Z,82.77
2022-09-10T01:06:39.664Z,82.57
2022-09-10T01:09:07.715Z,82.58
2022-09-10T01:11:48.222Z,82.28
2022-09-10T01:14:41.124Z,82.29
2022-09-10T01:17:15.648Z,82.38
2022-09-10T01:20:11.359Z,82.26
2022-09-10T01:22:54.197Z,81.83
2022-09-10T01:25:29.330Z,81.83
2022-09-10T01:28:00.129Z,81.93
2022-09-10T01:30:31.782Z,81.82
2022-09-10T01:33:08.607Z,82.27
2022-09-10T01:35:39.051Z,82.89
2022-09-10T01:38:11.249Z,83.13
2022-09-10T01:40:39.379Z,82.86
2022-09-10T01:43:10.853Z,82.92
2022-09-10T01:45:46.058Z,83.05
2022-09-10T01:48:27.111Z,83.05
2022-09-10T01:51:04.464Z,82.77
2022-09-10T01:53:43.702Z,82.70
2022-09-10T01:56:20.969Z,82.17
2022-09-10T01:58:50.685Z,81.94
2022-09-10T02:01:22.262Z,83.09
2022-09-10T02:03:57.619Z,84.07
2022-09-10T02:06:29.844Z,84.32
2022-09-10T02:08:59.900Z,84.35
2022-09-10T02:11:27.897Z,84.22
2022-09-10T02:13:57.245Z,84.05
2022-09-10T02:16:31.225Z,83.83
2022-09-10T02:19:00.772Z,83.52
2022-09-10T02:21:28.972Z,83.37
2022-09-10T02:23:59.759Z,83.25
2022-09-10T02:26:27.717Z,83.22
2022-09-10T02:28:57.309Z,83.10
2022-09-10T02:31:25.883Z,83.13
2022-09-10T02:33:54.556Z,82.86
2022-09-10T02:36:26.294Z,82.54
2022-09-10T02:38:56.824Z,82.38
2022-09-10T02:41:25.949Z,82.44
2022-09-10T02:43:54.019Z,82.89
2022-09-10T02:46:23.314Z,82.99
2022-09-10T02:48:51.818Z,83.98
2022-09-10T02:51:19.860Z,83.64
2022-09-10T02:53:47.767Z,83.80
2022-09-10T02:56:15.756Z,83.87
2022-09-10T02:58:43.891Z,84.00
2022-09-10T03:01:14.873Z,85.08
2022-09-10T03:03:44.351Z,85.61
2022-09-10T03:06:12.258Z,85.76
2022-09-10T03:08:40.200Z,85.94
2022-09-10T03:11:08.244Z,85.90
2022-09-10T03:13:36.729Z,85.54
2022-09-10T03:16:05.215Z,85.19
2022-09-10T03:18:33.200Z,84.84
2022-09-10T03:21:11.696Z,84.04
2022-09-10T03:23:40.465Z,83.99
2022-09-10T03:26:09.205Z,84.00
2022-09-10T03:28:38.098Z,83.94
2022-09-10T03:31:06.564Z,83.83
2022-09-10T03:33:35.072Z,83.57
2022-09-10T03:36:03.888Z,83.70
2022-09-10T03:38:33.178Z,83.56
2022-09-10T03:41:03.154Z,83.39
2022-09-10T03:43:31.220Z,83.89
2022-09-10T03:45:59.103Z,83.73
2022-09-10T03:48:27.050Z,83.69
2022-09-10T03:50:55.756Z,83.53
2022-09-10T03:53:24.308Z,83.78
2022-09-10T03:55:56.608Z,84.01
2022-09-10T03:58:24.627Z,84.45
2022-09-10T04:00:53.016Z,84.01
2022-09-10T04:03:23.069Z,83.68
2022-09-10T04:05:50.893Z,83.66
2022-09-10T04:08:24.549Z,83.42
2022-09-10T04:10:54.869Z,83.69
2022-09-10T04:13:23.215Z,83.48
2022-09-10T04:15:51.495Z,83.99
2022-09-10T04:18:20.857Z,84.72
2022-09-10T04:20:49.553Z,86.09
2022-09-10T04:23:17.931Z,86.92
2022-09-10T04:25:46.769Z,86.94
2022-09-10T04:28:16.454Z,86.23
2022-09-10T04:30:45.292Z,86.04
2022-09-10T04:33:13.414Z,85.75
2022-09-10T04:35:41.852Z,85.84
2022-09-10T04:38:09.787Z,85.88
2022-09-10T04:40:38.345Z,85.61
2022-09-10T04:43:06.489Z,86.33
2022-09-10T04:45:36.214Z,86.38
2022-09-10T04:48:07.068Z,86.15
2022-09-10T04:50:35.641Z,85.75
2022-09-10T04:53:08.907Z,85.81
2022-09-10T04:55:37.986Z,86.14
2022-09-10T04:58:06.203Z,86.59
2022-09-10T05:00:43.507Z,86.86
2022-09-10T05:03:13.213Z,87.45
2022-09-10T05:05:42.887Z,87.83
2022-09-10T05:08:13.079Z,87.42
2022-09-10T05:10:41.971Z,87.35
2022-09-10T05:13:10.221Z,87.57
2022-09-10T05:15:41.403Z,87.47
2022-09-10T05:18:13.100Z,87.25
2022-09-10T05:20:41.265Z,86.76
2022-09-10T05:23:09.771Z,86.87
2022-09-10T05:25:37.667Z,87.05
2022-09-10T05:28:05.793Z,86.72
2022-09-10T05:30:33.748Z,86.46
2022-09-10T05:33:01.908Z,86.47
2022-09-10T05:35:31.668Z,86.71
2022-09-10T05:38:01.115Z,86.92
2022-09-10T05:40:29.932Z,87.21
2022-09-10T05:42:57.844Z,87.23
2022-09-10T05:45:25.920Z,87.02
2022-09-10T05:47:54.342Z,86.74
2022-09-10T05:50:22.355Z,86.24
2022-09-10T05:52:51.794Z,85.78
2022-09-10T05:55:20.111Z,86.42
2022-09-10T05:57:48.381Z,86.41
2022-09-10T06:00:17.514Z,87.02
2022-09-10T06:02:46.024Z,87.11
2022-09-10T06:05:14.293Z,86.88
2022-09-10T06:07:44.832Z,86.81
2022-09-10T06:10:18.851Z,86.81
2022-09-10T06:12:48.309Z,87.00
2022-09-10T06:15:19.158Z,86.78
2022-09-10T06:17:48.446Z,86.33
2022-09-10T06:20:16.816Z,86.17
2022-09-10T06:22:45.996Z,85.81
2022-09-10T06:25:16.561Z,85.73
2022-09-10T06:27:44.538Z,85.28
2022-09-10T06:30:13.899Z,85.04
2022-09-10T06:32:42.583Z,84.81
2022-09-10T06:35:25.116Z,84.77
2022-09-10T06:38:00.327Z,84.75
2022-09-10T06:44:13.799Z,84.42
2022-09-10T06:47:46.298Z,84.31
2022-09-10T06:49:54.346Z,84.10
2022-09-10T06:52:28.376Z,84.06
2022-09-10T06:54:58.331Z,83.79
2022-09-10T06:58:07.919Z,83.64
2022-09-10T07:00:39.956Z,83.62
2022-09-10T07:03:08.566Z,83.48
2022-09-10T07:05:36.474Z,83.62
2022-09-10T07:08:05.667Z,83.34
2022-09-10T07:10:34.475Z,83.32
2022-09-10T07:13:02.312Z,83.53
2022-09-10T07:15:30.902Z,83.49
2022-09-10T07:18:02.946Z,83.71
2022-09-10T07:20:33.884Z,83.83
2022-09-10T07:26:42.520Z,83.12
2022-09-10T07:29:31.465Z,82.70
2022-09-10T07:32:01.014Z,82.35
2022-09-10T07:34:32.752Z,82.14
2022-09-10T07:37:00.921Z,82.14
2022-09-10T07:39:29.728Z,82.23
2022-09-10T07:41:57.853Z,82.60
2022-09-10T07:44:41.642Z,82.44
2022-09-10T07:47:10.771Z,82.43
2022-09-10T07:49:40.493Z,82.46
2022-09-10T07:52:27.623Z,82.20
2022-09-10T07:54:56.165Z,81.64
2022-09-10T07:57:24.578Z,81.99
2022-09-10T07:59:54.012Z,81.95
2022-09-10T08:02:22.538Z,81.73
2022-09-10T08:05:24.007Z,81.19
2022-09-10T08:10:45.707Z,81.68
2022-09-10T08:13:14.084Z,81.84
2022-09-10T08:15:44.889Z,81.81
2022-09-10T08:18:32.713Z,81.90
2022-09-10T08:21:02.719Z,81.99
2022-09-10T08:23:30.934Z,81.17
2022-09-10T08:26:00.549Z,82.12
2022-09-10T08:28:48.750Z,82.47
2022-09-10T08:31:18.291Z,82.45
2022-09-10T08:33:50.553Z,82.64
2022-09-10T08:36:21.866Z,82.22
2022-09-10T08:38:50.826Z,82.24
2022-09-10T08:41:28.391Z,82.03
2022-09-10T08:44:04.075Z,81.88
2022-09-10T08:46:42.631Z,81.65
2022-09-10T08:49:14.969Z,81.22
2022-09-10T08:51:47.800Z,81.52
2022-09-10T08:54:19.134Z,81.47
2022-09-10T08:56:47.067Z,81.13
2022-09-10T08:59:22.463Z,80.83
2022-09-10T09:01:54.967Z,80.83
2022-09-10T09:04:28.760Z,80.57
2022-09-10T09:07:23.890Z,80.76
2022-09-10T09:09:52.770Z,80.59
2022-09-10T09:12:29.419Z,80.56
2022-09-10T09:15:08.961Z,80.23
2022-09-10T09:17:58.694Z,80.56
2022-09-10T09:20:32.347Z,80.53
2022-09-10T09:23:08.618Z,80.31
2022-09-10T09:25:49.022Z,80.46
2022-09-10T09:28:22.287Z,80.88
2022-09-10T09:30:51.360Z,80.77
2022-09-10T09:33:23.135Z,80.96
2022-09-10T09:35:53.107Z,80.85
2022-09-10T09:38:27.607Z,81.10
2022-09-10T09:40:57.846Z,81.24
2022-09-10T09:43:33.383Z,81.57
2022-09-10T09:46:01.666Z,81.69
2022-09-10T09:48:36.352Z,81.47
2022-09-10T09:51:05.972Z,81.17
2022-09-10T09:53:35.471Z,81.18
2022-09-10T09:56:07.548Z,80.88
2022-09-10T09:58:36.947Z,80.80
2022-09-10T10:01:13.021Z,80.96
2022-09-10T10:03:48.716Z,80.96
2022-09-10T10:06:17.603Z,80.94
2022-09-10T10:08:53.109Z,81.31
2022-09-10T10:11:22.326Z,80.65
2022-09-10T10:13:51.499Z,80.11
2022-09-10T10:16:23.244Z,79.99
2022-09-10T10:18:51.612Z,79.81
2022-09-10T10:21:21.216Z,79.96
2022-09-10T10:23:50.932Z,79.99
2022-09-10T10:26:31.147Z,80.36
2022-09-10T10:29:04.084Z,80.42
2022-09-10T10:31:41.209Z,80.23
2022-09-10T10:34:31.472Z,80.19
2022-09-10T10:37:07.045Z,80.18
2022-09-10T10:39:47.975Z,80.14
2022-09-10T10:42:21.331Z,80.00
2022-09-10T10:44:59.629Z,79.75
2022-09-10T10:47:35.736Z,79.65
2022-09-10T10:50:10.220Z,79.76
2022-09-10T10:52:44.946Z,80.00
2022-09-10T10:55:22.834Z,79.41
2022-09-10T10:58:03.922Z,79.29
2022-09-10T11:00:33.639Z,79.73
2022-09-10T11:03:05.923Z,79.00
2022-09-10T11:05:39.213Z,79.39
2022-09-10T11:08:09.677Z,79.44
2022-09-10T11:10:42.556Z,79.49
2022-09-10T11:13:16.257Z,79.38
2022-09-10T11:15:47.485Z,79.50
2022-09-10T11:18:19.729Z,79.03
2022-09-10T11:20:54.918Z,79.17
2022-09-10T11:23:29.564Z,79.53
2022-09-10T11:26:03.255Z,79.49
2022-09-10T11:28:33.532Z,79.58
2022-09-10T11:31:05.405Z,79.61
2022-09-10T11:33:39.616Z,80.01
2022-09-10T11:36:13.323Z,79.86
2022-09-10T11:38:47.773Z,79.95
2022-09-10T11:41:20.188Z,79.44
2022-09-10T11:43:51.701Z,79.91
2022-09-10T11:46:24.537Z,80.16
2022-09-10T11:48:56.150Z,80.11
2022-09-10T11:51:30.657Z,79.91
2022-09-10T11:53:58.794Z,79.51
2022-09-10T11:56:53.141Z,79.23
2022-09-10T11:59:36.954Z,79.34
2022-09-10T12:02:25.138Z,79.19
2022-09-10T12:04:57.701Z,79.46
2022-09-10T12:07:38.360Z,79.44
2022-09-10T12:10:18.925Z,79.44
2022-09-10T12:12:50.560Z,78.70
2022-09-10T12:15:20.773Z,78.82
2022-09-10T12:17:51.385Z,79.16
2022-09-10T12:20:22.166Z,79.16
2022-09-10T12:22:53.949Z,78.83
2022-09-10T12:25:34.216Z,78.69
2022-09-10T12:28:08.280Z,79.05
2022-09-10T12:31:06.505Z,78.88
2022-09-10T12:34:08.129Z,78.46
2022-09-10T12:37:16.211Z,77.67
2022-09-10T12:39:44.821Z,77.95
2022-09-10T12:42:28.041Z,77.40
2022-09-10T12:44:58.816Z,77.12
2022-09-10T12:47:45.826Z,76.96
2022-09-10T12:50:33.910Z,77.09
2022-09-10T12:53:23.385Z,77.29
2022-09-10T12:58:55.735Z,77.84
2022-09-10T13:01:40.078Z,77.27
2022-09-10T13:04:24.996Z,77.56
2022-09-10T13:06:54.369Z,77.49
2022-09-10T13:09:24.416Z,77.84
2022-09-10T13:11:55.679Z,77.82
2022-09-10T13:14:27.471Z,78.14
2022-09-10T13:16:57.024Z,78.27
2022-09-10T13:19:53.068Z,78.42
2022-09-10T13:22:56.970Z,78.65
2022-09-10T13:25:27.848Z,78.67
2022-09-10T13:27:57.690Z,78.66
2022-09-10T13:30:25.599Z,78.72
2022-09-10T13:32:56.695Z,79.23
2022-09-10T13:35:42.468Z,79.40
2022-09-10T13:38:30.308Z,79.24
2022-09-10T13:41:19.003Z,78.98
2022-09-10T13:44:07.547Z,79.06
2022-09-10T13:46:38.257Z,79.11
2022-09-10T13:49:12.055Z,78.87
2022-09-10T13:51:47.186Z,78.88
2022-09-10T13:54:24.398Z,78.79
2022-09-10T13:56:54.089Z,78.95
2022-09-10T13:59:25.396Z,78.83
2022-09-10T14:01:54.810Z,78.69
2022-09-10T14:04:26.212Z,78.93
2022-09-10T14:06:55.741Z,79.05
2022-09-10T14:09:23.424Z,79.25
2022-09-10T14:11:51.617Z,79.55
2022-09-10T14:14:21.649Z,79.37
2022-09-10T14:16:52.795Z,79.45
2022-09-10T14:19:24.369Z,79.76
2022-09-10T14:21:53.410Z,80.03
2022-09-10T14:24:30.554Z,80.06
2022-09-10T14:27:17.295Z,79.84
2022-09-10T14:29:46.607Z,79.72
2022-09-10T14:32:31.688Z,80.28
2022-09-10T14:35:03.625Z,80.13
2022-09-10T14:37:38.401Z,80.41
2022-09-10T14:40:16.672Z,80.71
2022-09-10T14:42:45.046Z,80.77
2022-09-10T14:45:38.194Z,80.60
2022-09-10T14:48:06.722Z,80.53
2022-09-10T14:50:36.013Z,80.57
2022-09-10T14:53:03.864Z,80.90
2022-09-10T14:55:33.987Z,81.13
2022-09-10T14:58:01.676Z,81.22
2022-09-10T15:00:29.420Z,81.35
2022-09-10T15:02:57.366Z,81.65
2022-09-10T15:05:25.372Z,81.10
2022-09-10T15:07:54.433Z,80.98
2022-09-10T15:10:22.177Z,80.93
2022-09-10T15:12:52.088Z,80.55
2022-09-10T15:15:19.718Z,80.61
2022-09-10T15:17:48.153Z,80.86
2022-09-10T15:20:17.172Z,80.92
2022-09-10T15:22:45.287Z,80.71
2022-09-10T15:25:29.110Z,80.53
2022-09-10T15:27:56.826Z,80.91
2022-09-10T15:30:26.427Z,80.83
2022-09-10T15:32:55.017Z,81.06
2022-09-10T15:35:23.003Z,80.99
2022-09-10T15:37:51.216Z,81.07
2022-09-10T15:40:21.894Z,81.57
2022-09-10T15:42:49.838Z,81.62
2022-09-10T15:45:17.610Z,81.75
2022-09-10T15:47:48.361Z,81.80
2022-09-10T15:50:17.833Z,81.61
2022-09-10T15:52:46.379Z,81.59
2022-09-10T15:55:14.350Z,81.47
2022-09-10T15:57:43.484Z,81.64
2022-09-10T16:00:14.525Z,81.27
2022-09-10T16:02:42.250Z,81.23
2022-09-10T16:05:11.379Z,81.45
2022-09-10T16:08:03.926Z,81.17
2022-09-10T16:10:36.597Z,81.58
2022-09-10T16:13:06.515Z,81.38
2022-09-10T16:15:38.605Z,81.24
2022-09-10T16:18:15.431Z,80.65
2022-09-10T16:20:43.776Z,80.71
2022-09-10T16:23:18.688Z,80.76
2022-09-10T16:25:52.274Z,81.17
2022-09-10T16:28:22.924Z,80.99
2022-09-10T16:30:51.817Z,81.10
2022-09-10T16:33:19.889Z,80.99
2022-09-10T16:35:47.684Z,80.77
2022-09-10T16:38:15.386Z,80.65
2022-09-10T16:40:43.845Z,80.64
2022-09-10T16:43:11.549Z,80.21
2022-09-10T16:45:51.306Z,80.27
2022-09-10T16:48:19.395Z,80.50
2022-09-10T16:50:47.271Z,80.53
2022-09-10T16:53:15.236Z,80.69
2022-09-10T16:55:42.980Z,80.58
2022-09-10T16:58:11.057Z,80.47
2022-09-10T17:00:44.323Z,80.68
2022-09-10T17:03:12.249Z,80.52
2022-09-10T17:05:40.191Z,80.46
2022-09-10T17:08:08.699Z,80.73
2022-09-10T17:10:36.729Z,81.04
2022-09-10T17:13:05.021Z,80.98
2022-09-10T17:15:32.897Z,80.87
2022-09-10T17:18:02.472Z,80.79
2022-09-10T17:20:33.026Z,80.89
2022-09-10T17:23:00.846Z,80.24
2022-09-10T17:25:29.507Z,80.70
2022-09-10T17:27:57.506Z,81.05
2022-09-10T17:30:25.343Z,80.78
2022-09-10T17:32:54.042Z,80.76
2022-09-10T17:35:29.186Z,80.80
2022-09-10T17:37:56.832Z,80.77
2022-09-10T17:40:24.681Z,80.95
2022-09-10T17:42:52.412Z,80.83
2022-09-10T17:45:23.196Z,80.93
2022-09-10T17:47:51.534Z,81.15
2022-09-10T17:50:19.999Z,81.23
2022-09-10T17:52:54.991Z,81.48
2022-09-10T17:55:24.891Z,81.30
2022-09-10T17:57:52.987Z,81.20
2022-09-10T18:00:22.914Z,81.15
2022-09-10T18:02:52.156Z,81.27
2022-09-10T18:05:21.251Z,81.11
2022-09-10T18:07:50.976Z,81.24
2022-09-10T18:10:19.290Z,81.10
2022-09-10T18:12:47.418Z,81.03
2022-09-10T18:15:17.040Z,81.18
2022-09-10T18:17:45.065Z,81.35
2022-09-10T18:20:14.757Z,81.40
2022-09-10T18:22:45.032Z,81.19
2022-09-10T18:25:14.482Z,81.10
2022-09-10T18:27:43.512Z,81.11
2022-09-10T18:30:15.578Z,81.01
2022-09-10T18:32:43.441Z,81.04
2022-09-10T18:35:14.435Z,80.94
2022-09-10T18:37:42.945Z,81.14
2022-09-10T18:40:12.262Z,81.36
2022-09-10T18:42:46.157Z,81.73
2022-09-10T18:45:15.302Z,81.89
2022-09-10T18:47:45.821Z,82.19
2022-09-10T18:50:14.017Z,82.42
2022-09-10T18:52:42.133Z,82.51
2022-09-10T18:55:18.091Z,82.81
2022-09-10T18:57:48.105Z,82.92
2022-09-10T19:00:21.967Z,82.81
2022-09-10T19:02:50.590Z,82.74
2022-09-10T19:05:19.226Z,82.91
2022-09-10T19:07:50.552Z,82.89
2022-09-10T19:10:19.842Z,82.82
2022-09-10T19:12:49.368Z,83.07
2022-09-10T19:15:18.751Z,82.63
2022-09-10T19:17:47.110Z,82.82
2022-09-10T19:20:15.311Z,82.88
2022-09-10T19:22:44.200Z,82.74
2022-09-10T19:25:13.209Z,82.85
2022-09-10T19:27:41.628Z,82.41
2022-09-10T19:30:15.058Z,82.72
2022-09-10T19:32:43.794Z,82.49
2022-09-10T19:35:12.259Z,82.42
2022-09-10T19:37:41.937Z,82.36
2022-09-10T19:40:12.208Z,82.47
2022-09-10T19:42:40.434Z,82.54
2022-09-10T19:45:14.130Z,82.45
2022-09-10T19:47:43.288Z,82.39
2022-09-10T19:50:12.406Z,82.37
2022-09-10T19:52:41.063Z,82.14
2022-09-10T19:55:36.933Z,82.22
2022-09-10T19:58:07.865Z,82.05
2022-09-10T20:00:47.190Z,81.95
2022-09-10T20:03:16.086Z,82.04
2022-09-10T20:05:45.502Z,81.87
2022-09-10T20:08:13.836Z,81.41
2022-09-10T20:10:50.921Z,81.50
2022-09-10T20:13:21.877Z,81.65
2022-09-10T20:15:55.048Z,81.51
2022-09-10T20:18:27.895Z,81.09
2022-09-10T20:20:56.135Z,81.14
2022-09-10T20:23:25.219Z,81.39
2022-09-10T20:25:53.239Z,81.59
2022-09-10T20:28:21.364Z,81.42
2022-09-10T20:30:49.965Z,81.29
2022-09-10T20:33:20.458Z,81.45
2022-09-10T20:35:48.586Z,81.34
2022-09-10T20:38:17.509Z,81.19
2022-09-10T20:40:45.846Z,81.31
2022-09-10T20:43:13.659Z,81.42
2022-09-10T20:45:43.763Z,81.71
2022-09-10T20:48:11.583Z,81.73
2022-09-10T20:50:41.215Z,81.76
2022-09-10T20:53:09.220Z,81.96
2022-09-10T20:55:37.757Z,82.10
2022-09-10T20:58:05.811Z,82.14
2022-09-10T21:00:34.066Z,82.21
2022-09-10T21:03:03.790Z,82.48
2022-09-10T21:05:31.625Z,82.61
2022-09-10T21:08:00.889Z,82.56
2022-09-10T21:10:28.713Z,82.63
2022-09-10T21:12:57.132Z,82.39
2022-09-10T21:15:24.993Z,82.48
2022-09-10T21:17:53.451Z,82.53
2022-09-10T21:20:22.619Z,82.65
2022-09-10T21:22:50.874Z,82.84
2022-09-10T21:25:20.315Z,83.08
2022-09-10T21:27:48.255Z,82.72
2022-09-10T21:30:16.771Z,82.85
2022-09-10T21:32:45.539Z,82.88
2022-09-10T21:35:13.562Z,82.68
2022-09-10T21:37:42.643Z,82.74
2022-09-10T21:40:14.741Z,82.82
2022-09-10T21:42:47.874Z,82.74
2022-09-10T21:45:20.076Z,82.51
2022-09-10T21:47:50.147Z,82.55
2022-09-10T21:50:19.328Z,82.96
2022-09-10T21:52:47.410Z,83.18
2022-09-10T21:55:15.617Z,83.62
2022-09-10T21:57:46.053Z,83.25
2022-09-10T22:00:16.357Z,83.46
2022-09-10T22:02:44.987Z,83.66
2022-09-10T22:05:13.552Z,83.41
2022-09-10T22:07:41.369Z,83.13
2022-09-10T22:10:10.455Z,82.90
2022-09-10T22:12:38.437Z,82.95
2022-09-10T22:15:09.518Z,83.08
2022-09-10T22:17:37.485Z,82.70
2022-09-10T22:20:07.641Z,82.81
2022-09-10T22:22:35.625Z,83.00
2022-09-10T22:25:03.430Z,82.80
2022-09-10T22:27:31.535Z,82.60
2022-09-10T22:29:59.381Z,82.74
2022-09-10T22:32:29.029Z,82.67
2022-09-10T22:34:57.415Z,82.43
2022-09-10T22:37:25.220Z,82.71
2022-09-10T22:39:53.340Z,82.49
2022-09-10T22:42:21.691Z,82.44
2022-09-10T22:44:49.732Z,82.76
2022-09-10T22:47:18.641Z,82.51
2022-09-10T22:49:48.711Z,82.33
2022-09-10T22:52:16.458Z,82.24
2022-09-10T22:54:45.180Z,82.44
2022-09-10T22:57:13.141Z,82.38
2022-09-10T22:59:41.292Z,82.42
2022-09-10T23:02:09.795Z,82.63
2022-09-10T23:04:37.893Z,82.57
2022-09-10T23:07:07.427Z,83.04
2022-09-10T23:09:35.341Z,83.16
2022-09-10T23:12:03.968Z,83.02
2022-09-10T23:14:32.146Z,82.82
2022-09-10T23:16:59.993Z,82.91
2022-09-10T23:19:30.724Z,83.04
2022-09-10T23:21:58.639Z,83.39
2022-09-10T23:24:28.313Z,83.37
2022-09-10T23:26:56.588Z,83.43
2022-09-10T23:29:24.570Z,83.43
2022-09-10T23:31:54.525Z,83.48
2022-09-10T23:34:23.272Z,83.61
2022-09-10T23:36:51.726Z,83.57
2022-09-10T23:39:21.331Z,83.90
2022-09-10T23:41:52.073Z,83.92
2022-09-10T23:44:20.490Z,84.15
2022-09-10T23:46:48.553Z,84.52
2022-09-10T23:49:16.513Z,84.13
2022-09-10T23:51:44.746Z,84.15
2022-09-10T23:54:13.131Z,83.98
2022-09-10T23:56:41.523Z,84.38
2022-09-10T23:59:11.608Z,84.42
